Time;durP1;ratioP1;P1;durP2;ratioP2;P2;SDS_P1;SDS_P2;PMS_P1;PMS_P2;Temp;Humidity;BMP_temperature;BMP_pressure;BME280_temperature;BME280_humidity;BME280_pressure;Samples;Min_cycle;Max_cycle;Signal;HPM_P1;HPM_P2
2024/02/05 00:00:01;;;;;;;2.90;2.70;;;;;;;;;;5073399;28;20478;-62
2024/02/05 00:02:28;;;;;;;2.67;2.57;;;;;;;;;;5073413;28;20439;-65
2024/02/05 00:04:55;;;;;;;2.60;2.40;;;;;;;;;;5073260;28;20444;-65
2024/02/05 00:07:24;;;;;;;2.47;2.37;;;;;;;;;;5073182;28;20530;-64
2024/02/05 00:09:51;;;;;;;2.80;2.60;;;;;;;;;;5073076;28;20478;-65
2024/02/05 00:12:18;;;;;;;2.30;2.17;;;;;;;;;;5073049;28;20534;-62
2024/02/05 00:14:44;;;;;;;3.13;2.60;;;;;;;;;;5073194;28;20561;-63
2024/02/05 00:17:11;;;;;;;2.80;2.50;;;;;;;;;;5072814;28;20546;-63
2024/02/05 00:19:38;;;;;;;2.60;2.40;;;;;;;;;;5073019;28;20542;-63
2024/02/05 00:22:05;;;;;;;2.83;2.63;;;;;;;;;;5072995;28;20453;-63
2024/02/05 00:24:34;;;;;;;4.03;2.70;;;;;;;;;;5072899;28;20447;-65
2024/02/05 00:27:01;;;;;;;2.90;2.70;;;;;;;;;;5072668;28;21017;-63
2024/02/05 00:29:28;;;;;;;2.27;1.93;;;;;;;;;;5073057;28;20427;-63
2024/02/05 00:31:55;;;;;;;2.70;2.50;;;;;;;;;;5072981;28;20852;-63
2024/02/05 00:34:22;;;;;;;2.30;2.20;;;;;;;;;;5072850;28;20889;-62
2024/02/05 00:36:49;;;;;;;2.20;2.10;;;;;;;;;;5072863;28;20542;-63
2024/02/05 00:39:16;;;;;;;2.10;2.00;;;;;;;;;;5072717;28;20530;-63
2024/02/05 00:41:44;;;;;;;1.60;1.27;;;;;;;;;;5072982;28;20537;-63
2024/02/05 00:44:11;;;;;;;1.77;1.67;;;;;;;;;;5072938;28;20539;-63
2024/02/05 00:46:38;;;;;;;1.60;1.50;;;;;;;;;;5072836;28;20447;-63
2024/02/05 00:49:06;;;;;;;1.77;1.67;;;;;;;;;;5072758;28;20444;-62
2024/02/05 00:51:33;;;;;;;1.40;1.30;;;;;;;;;;5072651;28;20518;-63
2024/02/05 00:54:00;;;;;;;1.90;1.80;;;;;;;;;;5072585;28;20475;-63
2024/02/05 00:56:28;;;;;;;2.83;1.90;;;;;;;;;;5072850;28;20508;-63
2024/02/05 00:58:56;;;;;;;1.70;1.37;;;;;;;;;;5072783;28;20803;-65
2024/02/05 01:01:23;;;;;;;1.70;1.60;;;;;;;;;;5072676;28;20534;-65
2024/02/05 01:03:50;;;;;;;1.23;1.13;;;;;;;;;;5072555;28;20534;-65
2024/02/05 01:06:16;;;;;;;1.10;1.00;;;;;;;;;;5072540;28;20458;-65
2024/02/05 01:08:43;;;;;;;1.20;1.10;;;;;;;;;;5072762;28;20456;-64
2024/02/05 01:11:10;;;;;;;1.00;1.00;;;;;;;;;;5072681;28;20498;-65
2024/02/05 01:13:37;;;;;;;0.97;0.93;;;;;;;;;;5072315;28;21071;-65
2024/02/05 01:16:06;;;;;;;0.90;0.90;;;;;;;;;;5072530;28;20530;-64
2024/02/05 01:18:33;;;;;;;0.90;0.90;;;;;;;;;;5072431;28;20490;-63
2024/02/05 01:21:00;;;;;;;0.80;0.80;;;;;;;;;;5072390;28;20542;-63
2024/02/05 01:23:27;;;;;;;0.80;0.80;;;;;;;;;;5072403;28;20502;-63
2024/02/05 01:25:54;;;;;;;0.70;0.70;;;;;;;;;;5072355;28;20558;-63
2024/02/05 01:28:21;;;;;;;1.80;0.87;;;;;;;;;;5072602;28;20451;-63
2024/02/05 01:30:48;;;;;;;0.70;0.70;;;;;;;;;;5075199;28;20447;-63
2024/02/05 01:33:16;;;;;;;0.70;0.70;;;;;;;;;;5075821;28;20440;-63
2024/02/05 01:35:43;;;;;;;0.97;0.90;;;;;;;;;;5076208;28;20551;-64
2024/02/05 01:38:10;;;;;;;0.70;0.70;;;;;;;;;;5076055;28;20755;-65
2024/02/05 01:40:38;;;;;;;0.97;0.70;;;;;;;;;;5076000;28;20447;-65
2024/02/05 01:43:07;;;;;;;0.83;0.73;;;;;;;;;;5075872;28;20443;-65
2024/02/05 01:45:34;;;;;;;0.80;0.60;;;;;;;;;;5075773;28;20489;-65
2024/02/05 01:48:02;;;;;;;0.70;0.70;;;;;;;;;;5075623;28;20450;-64
2024/02/05 01:50:30;;;;;;;0.70;0.70;;;;;;;;;;5075835;28;20447;-65
2024/02/05 01:52:57;;;;;;;2.93;0.80;;;;;;;;;;5075789;28;20444;-65
2024/02/05 01:55:26;;;;;;;0.70;0.60;;;;;;;;;;5075594;28;20838;-65
2024/02/05 01:57:55;;;;;;;2.30;0.87;;;;;;;;;;5075576;28;20546;-65
2024/02/05 02:00:22;;;;;;;0.70;0.70;;;;;;;;;;5075617;28;20539;-65
2024/02/05 02:02:50;;;;;;;0.80;0.80;;;;;;;;;;5075695;28;20439;-65
2024/02/05 02:05:17;;;;;;;1.63;1.00;;;;;;;;;;5075365;28;21006;-65
2024/02/05 02:07:47;;;;;;;1.93;0.80;;;;;;;;;;5075466;28;20479;-64
2024/02/05 02:10:14;;;;;;;1.03;0.93;;;;;;;;;;5075427;28;20534;-65
2024/02/05 02:12:41;;;;;;;0.80;0.80;;;;;;;;;;5075367;28;20574;-65
2024/02/05 02:15:08;;;;;;;0.80;0.80;;;;;;;;;;5075111;28;20914;-65
2024/02/05 02:17:38;;;;;;;0.90;0.80;;;;;;;;;;5075371;28;20455;-63
2024/02/05 02:20:07;;;;;;;1.10;1.00;;;;;;;;;;5075315;28;20509;-63
2024/02/05 02:22:38;;;;;;;0.90;0.90;;;;;;;;;;5075262;28;20447;-62
2024/02/05 02:25:07;;;;;;;1.20;0.70;;;;;;;;;;5074988;28;20584;-63
2024/02/05 02:27:34;;;;;;;1.83;0.90;;;;;;;;;;5075088;28;20447;-63
2024/02/05 02:30:01;;;;;;;1.27;1.10;;;;;;;;;;5075238;28;20443;-63
2024/02/05 02:32:33;;;;;;;0.80;0.80;;;;;;;;;;5075158;28;20458;-63
2024/02/05 02:35:02;;;;;;;1.00;0.90;;;;;;;;;;5074964;28;20536;-63
2024/02/05 02:37:30;;;;;;;1.00;0.90;;;;;;;;;;5074868;28;20966;-63
2024/02/05 02:40:00;;;;;;;0.80;0.80;;;;;;;;;;5074495;28;20473;-63
2024/02/05 02:42:29;;;;;;;0.77;0.77;;;;;;;;;;5074950;28;20911;-63
2024/02/05 02:44:57;;;;;;;3.13;0.80;;;;;;;;;;5074841;28;20443;-63
2024/02/05 02:47:24;;;;;;;0.97;0.87;;;;;;;;;;5074571;28;20962;-65
2024/02/05 02:49:51;;;;;;;0.80;0.80;;;;;;;;;;5074632;28;20450;-63
2024/02/05 02:52:18;;;;;;;0.90;0.90;;;;;;;;;;5074518;28;20530;-63
2024/02/05 02:54:45;;;;;;;0.97;0.90;;;;;;;;;;5074365;28;20950;-63
2024/02/05 02:57:14;;;;;;;0.70;0.70;;;;;;;;;;5074639;28;20472;-63
2024/02/05 02:59:43;;;;;;;1.00;0.80;;;;;;;;;;5074484;28;20439;-63
2024/02/05 03:02:10;;;;;;;1.13;0.80;;;;;;;;;;5074425;28;20554;-62
2024/02/05 03:04:37;;;;;;;0.83;0.83;;;;;;;;;;5074270;28;20531;-62
2024/02/05 03:07:04;;;;;;;0.90;0.90;;;;;;;;;;5074109;28;20985;-63
2024/02/05 03:09:31;;;;;;;1.10;1.00;;;;;;;;;;5074358;28;20530;-63
2024/02/05 03:11:58;;;;;;;0.70;0.70;;;;;;;;;;5074286;28;20530;-63
2024/02/05 03:14:25;;;;;;;0.90;0.90;;;;;;;;;;5074129;28;20518;-63
2024/02/05 03:16:55;;;;;;;0.80;0.80;;;;;;;;;;5074092;28;20479;-64
2024/02/05 03:19:22;;;;;;;2.90;0.80;;;;;;;;;;5074098;28;20501;-65
2024/02/05 03:21:49;;;;;;;0.80;0.80;;;;;;;;;;5073829;28;20443;-65
2024/02/05 03:24:16;;;;;;;1.43;0.80;;;;;;;;;;5074144;28;20939;-63
2024/02/05 03:26:43;;;;;;;4.00;0.83;;;;;;;;;;5073746;28;20570;-63
2024/02/05 03:29:10;;;;;;;1.47;0.80;;;;;;;;;;5073964;28;20635;-63
2024/02/05 03:31:41;;;;;;;1.40;0.70;;;;;;;;;;5073928;28;20448;-63
2024/02/05 03:34:09;;;;;;;0.80;0.70;;;;;;;;;;5073567;28;20507;-63
2024/02/05 03:36:36;;;;;;;0.70;0.70;;;;;;;;;;5073668;28;21009;-63
2024/02/05 03:39:03;;;;;;;0.77;0.73;;;;;;;;;;5073724;28;20877;-63
2024/02/05 03:41:30;;;;;;;1.23;0.70;;;;;;;;;;5073733;28;20530;-63
2024/02/05 03:43:57;;;;;;;0.90;0.70;;;;;;;;;;5073486;28;20943;-63
2024/02/05 03:46:24;;;;;;;0.60;0.60;;;;;;;;;;5073464;28;20530;-63
2024/02/05 03:48:51;;;;;;;0.80;0.77;;;;;;;;;;5073416;28;20538;-63
2024/02/05 03:51:19;;;;;;;0.70;0.70;;;;;;;;;;5073581;28;20486;-63
2024/02/05 03:53:46;;;;;;;0.83;0.70;;;;;;;;;;5072905;28;20455;-63
2024/02/05 03:56:13;;;;;;;0.70;0.70;;;;;;;;;;5073412;28;20443;-63
2024/02/05 03:58:40;;;;;;;1.00;0.70;;;;;;;;;;5073375;28;20447;-63
2024/02/05 04:01:07;;;;;;;0.60;0.60;;;;;;;;;;5073178;28;20447;-63
2024/02/05 04:03:34;;;;;;;0.70;0.60;;;;;;;;;;5073440;28;20543;-63
2024/02/05 04:06:01;;;;;;;0.80;0.80;;;;;;;;;;5073401;28;20475;-63
2024/02/05 04:08:29;;;;;;;0.80;0.60;;;;;;;;;;5073218;28;20856;-63
2024/02/05 04:10:57;;;;;;;1.97;0.63;;;;;;;;;;5073245;28;20539;-63
2024/02/05 04:13:25;;;;;;;0.70;0.60;;;;;;;;;;5073183;28;20539;-63
2024/02/05 04:15:52;;;;;;;0.60;0.50;;;;;;;;;;5072924;28;20483;-63
2024/02/05 04:18:19;;;;;;;0.50;0.50;;;;;;;;;;5073270;28;20538;-63
2024/02/05 04:20:45;;;;;;;1.10;0.70;;;;;;;;;;5073132;28;20530;-63
2024/02/05 04:23:12;;;;;;;0.60;0.60;;;;;;;;;;5073127;28;20530;-63
2024/02/05 04:25:41;;;;;;;0.60;0.60;;;;;;;;;;5072850;28;20467;-63
2024/02/05 04:28:08;;;;;;;0.70;0.60;;;;;;;;;;5072991;28;20443;-63
2024/02/05 04:30:37;;;;;;;1.77;0.97;;;;;;;;;;5072805;28;20538;-63
2024/02/05 04:33:04;;;;;;;0.60;0.60;;;;;;;;;;5072993;28;20479;-63
2024/02/05 04:35:31;;;;;;;0.80;0.80;;;;;;;;;;5072737;28;21033;-63
2024/02/05 04:37:58;;;;;;;0.70;0.70;;;;;;;;;;5072931;28;20539;-63
2024/02/05 04:40:25;;;;;;;0.80;0.80;;;;;;;;;;5072822;28;20530;-63
2024/02/05 04:42:53;;;;;;;0.60;0.57;;;;;;;;;;5072839;28;20471;-63
2024/02/05 04:45:20;;;;;;;0.70;0.60;;;;;;;;;;5072681;28;21173;-63
2024/02/05 04:47:47;;;;;;;0.80;0.80;;;;;;;;;;5072644;28;21026;-63
2024/02/05 04:50:14;;;;;;;0.70;0.67;;;;;;;;;;5072869;28;20455;-63
2024/02/05 04:52:41;;;;;;;0.80;0.70;;;;;;;;;;5072664;28;20540;-63
2024/02/05 04:55:09;;;;;;;0.70;0.60;;;;;;;;;;5072594;28;20570;-63
2024/02/05 04:57:36;;;;;;;0.90;0.60;;;;;;;;;;5072593;28;20939;-63
2024/02/05 05:00:06;;;;;;;1.53;1.00;;;;;;;;;;5072570;28;20530;-64
2024/02/05 05:02:33;;;;;;;3.13;0.70;;;;;;;;;;5072744;28;20530;-63
2024/02/05 05:05:00;;;;;;;0.80;0.70;;;;;;;;;;5076112;28;20890;-63
2024/02/05 05:07:27;;;;;;;1.30;0.80;;;;;;;;;;5076547;28;20443;-63
2024/02/05 05:09:54;;;;;;;0.80;0.70;;;;;;;;;;5076198;28;20448;-63
2024/02/05 05:12:20;;;;;;;0.80;0.60;;;;;;;;;;5076605;28;20478;-63
2024/02/05 05:14:47;;;;;;;0.80;0.70;;;;;;;;;;5076483;28;20579;-63
2024/02/05 05:17:16;;;;;;;0.90;0.60;;;;;;;;;;5076459;28;20526;-63
2024/02/05 05:19:43;;;;;;;0.80;0.60;;;;;;;;;;5076354;28;20881;-63
2024/02/05 05:22:10;;;;;;;1.10;0.77;;;;;;;;;;5076220;28;20938;-63
2024/02/05 05:24:37;;;;;;;1.70;0.70;;;;;;;;;;5076044;28;20570;-63
2024/02/05 05:27:05;;;;;;;1.57;0.80;;;;;;;;;;5075996;28;20550;-63
2024/02/05 05:29:32;;;;;;;0.70;0.70;;;;;;;;;;5076180;28;20461;-63
2024/02/05 05:31:59;;;;;;;0.93;0.70;;;;;;;;;;5076172;28;20548;-63
2024/02/05 05:34:27;;;;;;;2.00;0.90;;;;;;;;;;5075938;28;20881;-63
2024/02/05 05:36:54;;;;;;;2.00;1.20;;;;;;;;;;5075850;28;20537;-63
2024/02/05 05:39:21;;;;;;;1.83;1.07;;;;;;;;;;5075865;28;20493;-63
2024/02/05 05:41:48;;;;;;;3.57;0.80;;;;;;;;;;5076047;28;20530;-62
2024/02/05 05:44:15;;;;;;;2.00;0.80;;;;;;;;;;5075913;28;20489;-63
2024/02/05 05:46:42;;;;;;;4.00;0.90;;;;;;;;;;5075797;28;20482;-63
2024/02/05 05:49:09;;;;;;;1.20;0.80;;;;;;;;;;5075733;28;20474;-63
2024/02/05 05:51:37;;;;;;;1.13;0.50;;;;;;;;;;5075599;28;20445;-63
2024/02/05 05:54:04;;;;;;;1.63;0.50;;;;;;;;;;5075750;28;20526;-63
2024/02/05 05:56:31;;;;;;;1.30;0.83;;;;;;;;;;5075627;28;20487;-63
2024/02/05 05:58:58;;;;;;;0.70;0.50;;;;;;;;;;5075669;28;20538;-63
2024/02/05 06:01:25;;;;;;;1.13;0.60;;;;;;;;;;5075525;28;20538;-63
2024/02/05 06:03:52;;;;;;;1.63;0.70;;;;;;;;;;5075474;28;20450;-63
2024/02/05 06:06:19;;;;;;;0.80;0.63;;;;;;;;;;5075261;28;20450;-66
2024/02/05 06:08:48;;;;;;;0.70;0.60;;;;;;;;;;5075455;28;20538;-64
2024/02/05 06:11:15;;;;;;;0.60;0.60;;;;;;;;;;5075253;28;20974;-63
2024/02/05 06:13:43;;;;;;;0.80;0.60;;;;;;;;;;5075341;28;20560;-63
2024/02/05 06:16:10;;;;;;;0.57;0.50;;;;;;;;;;5074605;28;20574;-63
2024/02/05 06:18:37;;;;;;;0.80;0.50;;;;;;;;;;5074966;28;20535;-64
2024/02/05 06:21:04;;;;;;;0.60;0.60;;;;;;;;;;5075317;28;20534;-63
2024/02/05 06:23:31;;;;;;;1.57;0.60;;;;;;;;;;5075166;28;20447;-64
2024/02/05 06:25:59;;;;;;;0.70;0.50;;;;;;;;;;5075055;28;20565;-63
2024/02/05 06:28:26;;;;;;;0.70;0.70;;;;;;;;;;5075040;28;20602;-63
2024/02/05 06:30:53;;;;;;;1.07;0.70;;;;;;;;;;5074912;28;20533;-63
2024/02/05 06:33:20;;;;;;;1.00;0.60;;;;;;;;;;5074786;28;20526;-63
2024/02/05 06:35:47;;;;;;;0.80;0.77;;;;;;;;;;5074860;28;20552;-63
2024/02/05 06:38:14;;;;;;;2.90;0.87;;;;;;;;;;5074741;28;21017;-62
2024/02/05 06:40:41;;;;;;;1.40;0.77;;;;;;;;;;5074815;28;20447;-63
2024/02/05 06:43:09;;;;;;;0.93;0.70;;;;;;;;;;5074803;28;20871;-63
2024/02/05 06:45:37;;;;;;;1.57;0.90;;;;;;;;;;5074574;28;20910;-63
2024/02/05 06:48:04;;;;;;;1.33;0.97;;;;;;;;;;5074540;28;20444;-63
2024/02/05 06:50:31;;;;;;;2.90;0.63;;;;;;;;;;5074656;28;20498;-64
2024/02/05 06:52:58;;;;;;;0.90;0.80;;;;;;;;;;5074533;28;20443;-63
2024/02/05 06:55:25;;;;;;;1.00;0.70;;;;;;;;;;5074369;28;20483;-63
2024/02/05 06:57:52;;;;;;;2.07;0.70;;;;;;;;;;5074478;28;20881;-63
2024/02/05 07:00:20;;;;;;;1.80;0.60;;;;;;;;;;5074347;28;20880;-64
2024/02/05 07:02:49;;;;;;;0.73;0.67;;;;;;;;;;5074530;28;20795;-63
2024/02/05 07:05:16;;;;;;;1.30;0.70;;;;;;;;;;5074385;28;20498;-63
2024/02/05 07:07:43;;;;;;;0.70;0.70;;;;;;;;;;5074337;28;20859;-63
2024/02/05 07:10:11;;;;;;;1.10;0.77;;;;;;;;;;5074191;28;20505;-63
2024/02/05 07:12:38;;;;;;;1.10;1.00;;;;;;;;;;5074082;28;20479;-63
2024/02/05 07:15:05;;;;;;;0.90;0.70;;;;;;;;;;5073919;28;20898;-63
2024/02/05 07:17:34;;;;;;;1.30;0.70;;;;;;;;;;5074123;28;20482;-64
2024/02/05 07:20:02;;;;;;;0.90;0.90;;;;;;;;;;5074127;28;20447;-63
2024/02/05 07:22:29;;;;;;;1.20;1.00;;;;;;;;;;5073991;28;20802;-63
2024/02/05 07:24:56;;;;;;;0.60;0.60;;;;;;;;;;5073789;28;21037;-63
2024/02/05 07:27:24;;;;;;;1.57;0.80;;;;;;;;;;5072676;28;20558;-63
2024/02/05 07:29:51;;;;;;;1.20;0.90;;;;;;;;;;5073671;28;20802;-63
2024/02/05 07:32:18;;;;;;;1.13;1.03;;;;;;;;;;5073864;28;20439;-63
2024/02/05 07:34:46;;;;;;;1.23;1.13;;;;;;;;;;5073741;28;20629;-63
2024/02/05 07:37:13;;;;;;;0.83;0.80;;;;;;;;;;5073516;28;20483;-63
2024/02/05 07:39:40;;;;;;;1.40;1.30;;;;;;;;;;5073453;28;20530;-63
2024/02/05 07:42:07;;;;;;;1.20;1.07;;;;;;;;;;5073369;28;20803;-63
2024/02/05 07:44:34;;;;;;;1.00;0.90;;;;;;;;;;5073641;28;20479;-63
2024/02/05 07:47:01;;;;;;;1.57;0.80;;;;;;;;;;5073497;28;20493;-64
2024/02/05 07:49:28;;;;;;;1.27;1.00;;;;;;;;;;5073320;28;20451;-63
2024/02/05 07:51:56;;;;;;;1.87;1.77;;;;;;;;;;5073289;28;20454;-64
2024/02/05 07:54:25;;;;;;;3.53;1.13;;;;;;;;;;5073341;28;20542;-64
2024/02/05 07:56:52;;;;;;;4.03;1.10;;;;;;;;;;5073062;28;20650;-64
2024/02/05 07:59:19;;;;;;;1.63;1.30;;;;;;;;;;5073421;28;20443;-64
2024/02/05 08:01:46;;;;;;;1.80;1.40;;;;;;;;;;5073286;28;20798;-64
2024/02/05 08:04:13;;;;;;;1.40;1.30;;;;;;;;;;5073033;28;20926;-63
2024/02/05 08:06:40;;;;;;;1.83;1.53;;;;;;;;;;5073096;28;20455;-63
2024/02/05 08:09:09;;;;;;;1.50;1.40;;;;;;;;;;5072824;28;20444;-62
2024/02/05 08:11:36;;;;;;;1.77;1.40;;;;;;;;;;5073266;28;20471;-63
2024/02/05 08:14:03;;;;;;;3.43;1.30;;;;;;;;;;5072607;28;20450;-67
2024/02/05 08:16:30;;;;;;;3.53;1.63;;;;;;;;;;5072928;28;20515;-65
2024/02/05 08:18:57;;;;;;;1.80;1.60;;;;;;;;;;5072955;28;20444;-63
2024/02/05 08:21:24;;;;;;;2.07;1.70;;;;;;;;;;5072800;28;20444;-63
2024/02/05 08:23:51;;;;;;;2.00;1.80;;;;;;;;;;5072739;28;20889;-63
2024/02/05 08:26:19;;;;;;;1.90;1.70;;;;;;;;;;5072395;28;20483;-63
2024/02/05 08:28:47;;;;;;;2.37;2.17;;;;;;;;;;5072839;28;20534;-64
2024/02/05 08:31:15;;;;;;;2.53;1.93;;;;;;;;;;5072798;28;20439;-63
2024/02/05 08:33:42;;;;;;;2.97;1.67;;;;;;;;;;5072709;28;20440;-63
2024/02/05 08:36:10;;;;;;;5.27;2.10;;;;;;;;;;5072551;28;20475;-63
2024/02/05 08:38:37;;;;;;;2.60;1.90;;;;;;;;;;5072289;28;20982;-63
2024/02/05 08:41:04;;;;;;;3.50;2.00;;;;;;;;;;5072698;28;20535;-64
2024/02/05 08:43:32;;;;;;;6.03;2.07;;;;;;;;;;5072589;28;20538;-66
2024/02/05 08:45:59;;;;;;;4.10;2.67;;;;;;;;;;5072691;28;20444;-67
2024/02/05 08:48:26;;;;;;;2.93;1.80;;;;;;;;;;5072401;28;20530;-63
2024/02/05 08:50:53;;;;;;;3.27;1.90;;;;;;;;;;5072510;28;20447;-64
2024/02/05 08:53:20;;;;;;;2.57;2.37;;;;;;;;;;5072643;28;20534;-63
2024/02/05 08:55:47;;;;;;;8.40;4.50;;;;;;;;;;5072265;28;20528;-67
2024/02/05 08:58:15;;;;;;;4.13;2.03;;;;;;;;;;5072566;28;20530;-66
2024/02/05 09:00:43;;;;;;;2.13;1.90;;;;;;;;;;5072454;28;20504;-64
2024/02/05 09:03:10;;;;;;;3.67;1.90;;;;;;;;;;5072374;28;20550;-63
2024/02/05 09:05:37;;;;;;;2.93;2.23;;;;;;;;;;5072461;28;20458;-63
2024/02/05 09:08:05;;;;;;;3.03;2.00;;;;;;;;;;5072535;28;20843;-62
2024/02/05 09:10:32;;;;;;;3.50;2.10;;;;;;;;;;5072175;28;20443;-69
2024/02/05 09:12:59;;;;;;;2.87;2.00;;;;;;;;;;5072272;28;20447;-69
2024/02/05 09:15:26;;;;;;;3.90;2.83;;;;;;;;;;5072259;28;20542;-71
2024/02/05 09:17:55;;;;;;;2.53;2.20;;;;;;;;;;5072122;28;20447;-66
2024/02/05 09:20:22;;;;;;;3.47;2.63;;;;;;;;;;5072424;28;20501;-67
2024/02/05 09:22:49;;;;;;;4.10;2.07;;;;;;;;;;5072350;28;20443;-67
2024/02/05 09:25:16;;;;;;;3.00;2.20;;;;;;;;;;5072065;28;20447;-63
2024/02/05 09:27:43;;;;;;;3.70;2.03;;;;;;;;;;5071632;28;20475;-64
2024/02/05 09:30:10;;;;;;;4.30;2.10;;;;;;;;;;5072148;28;20876;-62
2024/02/05 09:32:37;;;;;;;3.43;2.30;;;;;;;;;;5072118;28;20558;-62
2024/02/05 09:35:06;;;;;;;5.30;2.23;;;;;;;;;;5072251;28;20505;-61
2024/02/05 09:37:33;;;;;;;6.60;2.67;;;;;;;;;;5072034;28;20574;-61
2024/02/05 09:39:59;;;;;;;4.57;2.97;;;;;;;;;;5072193;28;20450;-61
2024/02/05 09:42:27;;;;;;;5.30;3.20;;;;;;;;;;5072093;28;20542;-62
2024/02/05 09:44:56;;;;;;;9.17;4.00;;;;;;;;;;5071876;28;20450;-65
2024/02/05 09:47:23;;;;;;;6.00;3.60;;;;;;;;;;5071984;28;20792;-69
2024/02/05 09:49:50;;;;;;;11.77;3.77;;;;;;;;;;5072100;28;20444;-66
2024/02/05 09:52:19;;;;;;;7.13;3.63;;;;;;;;;;5075522;28;20534;-64
2024/02/05 09:54:47;;;;;;;6.40;3.70;;;;;;;;;;5075496;28;20439;-65
2024/02/05 09:57:14;;;;;;;7.90;3.30;;;;;;;;;;5075357;28;20482;-69
2024/02/05 09:59:41;;;;;;;8.10;4.10;;;;;;;;;;5075319;28;20482;-62
2024/02/05 10:02:09;;;;;;;6.10;4.20;;;;;;;;;;5075368;28;20444;-68
2024/02/05 10:04:38;;;;;;;11.60;3.90;;;;;;;;;;5075489;28;20444;-65
2024/02/05 10:07:08;;;;;;;9.00;3.80;;;;;;;;;;5075553;28;20534;-66
2024/02/05 10:09:37;;;;;;;6.10;4.23;;;;;;;;;;5075259;28;20781;-69
2024/02/05 10:12:05;;;;;;;11.03;3.60;;;;;;;;;;5075142;28;20476;-67
2024/02/05 10:14:32;;;;;;;8.50;3.60;;;;;;;;;;5075307;28;20534;-65
2024/02/05 10:16:59;;;;;;;10.87;3.27;;;;;;;;;;5074968;28;21067;-62
2024/02/05 10:19:26;;;;;;;7.37;3.57;;;;;;;;;;5075193;28;20535;-68
2024/02/05 10:21:56;;;;;;;8.47;4.23;;;;;;;;;;5075103;28;20545;-61
2024/02/05 10:24:23;;;;;;;9.13;2.87;;;;;;;;;;5075377;28;20471;-66
2024/02/05 10:26:51;;;;;;;9.40;3.20;;;;;;;;;;5074618;28;20558;-63
2024/02/05 10:29:22;;;;;;;8.17;3.73;;;;;;;;;;5075024;28;20637;-62
2024/02/05 10:31:49;;;;;;;10.70;3.43;;;;;;;;;;5074860;28;20955;-65
2024/02/05 10:34:17;;;;;;;5.87;3.20;;;;;;;;;;5074886;28;20439;-62
2024/02/05 10:36:44;;;;;;;5.07;3.07;;;;;;;;;;5074663;28;20514;-65
2024/02/05 10:39:10;;;;;;;5.73;3.30;;;;;;;;;;5074594;28;20530;-68
2024/02/05 10:41:38;;;;;;;5.90;2.93;;;;;;;;;;5074434;28;21021;-67
2024/02/05 10:44:06;;;;;;;4.80;2.87;;;;;;;;;;5074692;28;20453;-65
2024/02/05 10:46:33;;;;;;;5.93;3.00;;;;;;;;;;5074430;28;20502;-69
2024/02/05 10:49:01;;;;;;;4.83;2.40;;;;;;;;;;5074412;28;20538;-65
2024/02/05 10:51:28;;;;;;;7.70;2.90;;;;;;;;;;5074541;28;20807;-66
2024/02/05 10:53:55;;;;;;;6.37;2.90;;;;;;;;;;5074457;28;20473;-64
2024/02/05 10:56:23;;;;;;;9.90;3.50;;;;;;;;;;5074517;28;20522;-61
2024/02/05 10:58:55;;;;;;;8.00;2.83;;;;;;;;;;5074401;28;20538;-63
2024/02/05 11:01:24;;;;;;;4.87;3.53;;;;;;;;;;5074233;28;20454;-68
2024/02/05 11:03:55;;;;;;;9.20;5.50;;;;;;;;;;5074098;28;20792;-68
2024/02/05 11:06:23;;;;;;;6.93;3.77;;;;;;;;;;5073982;28;20558;-67
2024/02/05 11:08:50;;;;;;;10.03;3.23;;;;;;;;;;5074221;28;20954;-67
2024/02/05 11:11:17;;;;;;;8.13;3.17;;;;;;;;;;5074040;28;20955;-63
2024/02/05 11:13:47;;;;;;;6.70;3.00;;;;;;;;;;5073803;28;20448;-64
2024/02/05 11:16:14;;;;;;;7.27;3.03;;;;;;;;;;5073871;28;20532;-63
2024/02/05 11:18:45;;;;;;;9.40;3.50;;;;;;;;;;5073782;28;20534;-66
2024/02/05 11:21:13;;;;;;;6.23;3.40;;;;;;;;;;5073737;28;20969;-66
2024/02/05 11:23:40;;;;;;;5.70;3.47;;;;;;;;;;5073841;28;20879;-64
2024/02/05 11:26:07;;;;;;;5.87;3.27;;;;;;;;;;5073758;28;20471;-64
2024/02/05 11:28:34;;;;;;;7.03;3.43;;;;;;;;;;5073767;28;20444;-66
2024/02/05 11:31:03;;;;;;;8.33;3.93;;;;;;;;;;5073680;28;20530;-68
2024/02/05 11:33:33;;;;;;;7.70;4.90;;;;;;;;;;5073544;28;20508;-68
2024/02/05 11:36:02;;;;;;;10.40;4.17;;;;;;;;;;5073689;28;20447;-64
2024/02/05 11:38:29;;;;;;;8.70;4.17;;;;;;;;;;5073507;28;20483;-62
2024/02/05 11:40:56;;;;;;;12.67;3.77;;;;;;;;;;5073536;28;20883;-66
2024/02/05 11:43:24;;;;;;;13.93;3.90;;;;;;;;;;5073417;28;20534;-65
2024/02/05 11:45:51;;;;;;;7.17;3.33;;;;;;;;;;5073225;28;20443;-64
2024/02/05 11:48:19;;;;;;;11.87;4.00;;;;;;;;;;5073484;28;20538;-67
2024/02/05 11:50:45;;;;;;;7.90;3.60;;;;;;;;;;5073484;28;20455;-65
2024/02/05 11:53:14;;;;;;;12.97;3.90;;;;;;;;;;5073318;28;20443;-61
2024/02/05 11:55:41;;;;;;;7.60;4.10;;;;;;;;;;5073357;28;20807;-64
2024/02/05 11:58:08;;;;;;;7.50;4.33;;;;;;;;;;5073049;28;20554;-65
2024/02/05 12:00:35;;;;;;;30.23;5.90;;;;;;;;;;5073664;28;20453;-66
2024/02/05 12:03:02;;;;;;;6.63;3.73;;;;;;;;;;5073104;28;20546;-67
2024/02/05 12:05:30;;;;;;;12.47;3.80;;;;;;;;;;5073150;28;20546;-64
2024/02/05 12:07:57;;;;;;;10.93;3.17;;;;;;;;;;5073067;28;20530;-64
2024/02/05 12:10:25;;;;;;;7.77;3.63;;;;;;;;;;5073026;28;20973;-62
2024/02/05 12:12:53;;;;;;;7.33;3.67;;;;;;;;;;5072532;28;20803;-66
2024/02/05 12:15:22;;;;;;;12.43;3.97;;;;;;;;;;5073158;28;20450;-63
2024/02/05 12:17:49;;;;;;;10.63;4.00;;;;;;;;;;5072796;28;20483;-66
2024/02/05 12:20:19;;;;;;;7.97;4.27;;;;;;;;;;5073066;28;20479;-66
2024/02/05 12:22:47;;;;;;;13.27;4.00;;;;;;;;;;5072875;28;20454;-66
2024/02/05 12:25:14;;;;;;;11.33;4.50;;;;;;;;;;5072650;28;20483;-65
2024/02/05 12:27:42;;;;;;;13.10;4.17;;;;;;;;;;5072664;28;20931;-64
2024/02/05 12:30:10;;;;;;;8.00;4.13;;;;;;;;;;5072750;28;20440;-66
2024/02/05 12:32:37;;;;;;;10.00;3.77;;;;;;;;;;5072846;28;20439;-65
2024/02/05 12:35:04;;;;;;;17.93;5.20;;;;;;;;;;5072824;28;20526;-67
2024/02/05 12:37:32;;;;;;;9.00;4.30;;;;;;;;;;5072566;28;20486;-67
2024/02/05 12:39:59;;;;;;;11.50;4.33;;;;;;;;;;5072593;28;21038;-66
2024/02/05 12:42:26;;;;;;;11.13;4.23;;;;;;;;;;5072831;28;20530;-63
2024/02/05 12:44:55;;;;;;;16.07;4.53;;;;;;;;;;5072710;28;20872;-64
2024/02/05 12:47:22;;;;;;;10.03;3.90;;;;;;;;;;5072573;28;20577;-66
2024/02/05 12:49:49;;;;;;;17.43;5.33;;;;;;;;;;5072481;28;20526;-67
2024/02/05 12:52:16;;;;;;;10.73;4.37;;;;;;;;;;5072552;28;21006;-65
2024/02/05 12:54:43;;;;;;;15.63;4.83;;;;;;;;;;5072387;28;20534;-63
2024/02/05 12:57:10;;;;;;;15.97;5.50;;;;;;;;;;5072540;28;20478;-63
2024/02/05 12:59:37;;;;;;;9.33;3.40;;;;;;;;;;5072510;28;20889;-65
2024/02/05 13:02:06;;;;;;;15.17;4.70;;;;;;;;;;5072394;28;20534;-66
2024/02/05 13:04:34;;;;;;;9.77;3.67;;;;;;;;;;5072493;28;20534;-61
2024/02/05 13:07:03;;;;;;;12.83;4.53;;;;;;;;;;5072225;28;20444;-68
2024/02/05 13:09:32;;;;;;;13.40;5.40;;;;;;;;;;5072407;28;20532;-64
2024/02/05 13:11:59;;;;;;;17.07;4.90;;;;;;;;;;5072545;28;20469;-63
2024/02/05 13:14:26;;;;;;;12.57;4.00;;;;;;;;;;5072469;28;20457;-67
2024/02/05 13:16:55;;;;;;;11.27;4.37;;;;;;;;;;5072138;28;20965;-65
2024/02/05 13:19:23;;;;;;;16.03;4.07;;;;;;;;;;5072283;28;20448;-64
2024/02/05 13:21:50;;;;;;;21.17;8.30;;;;;;;;;;5072213;28;20447;-64
2024/02/05 13:24:17;;;;;;;12.13;4.83;;;;;;;;;;5072308;28;21007;-64
2024/02/05 13:26:47;;;;;;;22.03;4.43;;;;;;;;;;5074797;28;20471;-65
2024/02/05 13:29:14;;;;;;;8.77;4.53;;;;;;;;;;5075937;28;20827;-64
2024/02/05 13:31:41;;;;;;;15.93;6.10;;;;;;;;;;5075888;28;20542;-64
2024/02/05 13:34:08;;;;;;;10.57;5.00;;;;;;;;;;5075751;28;20443;-61
2024/02/05 13:36:37;;;;;;;10.03;4.53;;;;;;;;;;5076080;28;20454;-64
2024/02/05 13:39:05;;;;;;;19.50;5.17;;;;;;;;;;5075864;28;20570;-64
2024/02/05 13:41:37;;;;;;;21.00;5.43;;;;;;;;;;5075711;28;20946;-62
2024/02/05 13:44:04;;;;;;;14.60;5.70;;;;;;;;;;5076189;28;20439;-62
2024/02/05 13:46:31;;;;;;;15.23;5.07;;;;;;;;;;5075605;28;20889;-64
2024/02/05 13:48:58;;;;;;;13.93;6.37;;;;;;;;;;5075472;28;20530;-62
2024/02/05 13:51:25;;;;;;;13.70;4.00;;;;;;;;;;5075738;28;20436;-62
2024/02/05 13:53:53;;;;;;;18.63;6.00;;;;;;;;;;5075526;28;20444;-63
2024/02/05 13:56:20;;;;;;;11.87;4.63;;;;;;;;;;5075613;28;20443;-64
2024/02/05 13:58:47;;;;;;;9.87;4.83;;;;;;;;;;5075481;28;20514;-63
2024/02/05 14:01:15;;;;;;;10.73;4.77;;;;;;;;;;5075417;28;20443;-64
2024/02/05 14:03:42;;;;;;;12.20;5.73;;;;;;;;;;5075525;28;20447;-63
2024/02/05 14:06:09;;;;;;;18.63;5.70;;;;;;;;;;5075407;28;20530;-63
2024/02/05 14:08:36;;;;;;;16.73;5.33;;;;;;;;;;5075321;28;20447;-63
2024/02/05 14:11:04;;;;;;;15.50;4.70;;;;;;;;;;5075333;28;20534;-63
2024/02/05 14:13:31;;;;;;;14.47;5.20;;;;;;;;;;5075172;28;20490;-63
2024/02/05 14:15:58;;;;;;;15.03;4.10;;;;;;;;;;5075056;28;20479;-63
2024/02/05 14:18:25;;;;;;;16.03;4.70;;;;;;;;;;5075254;28;20812;-63
2024/02/05 14:20:52;;;;;;;8.63;4.50;;;;;;;;;;5075080;28;20451;-63
2024/02/05 14:23:20;;;;;;;14.10;4.10;;;;;;;;;;5075015;28;20536;-63
2024/02/05 14:25:46;;;;;;;11.00;3.60;;;;;;;;;;5074765;28;20475;-63
2024/02/05 14:28:15;;;;;;;9.27;3.70;;;;;;;;;;5074800;28;20479;-63
2024/02/05 14:30:42;;;;;;;11.00;4.83;;;;;;;;;;5075014;28;20594;-63
2024/02/05 14:33:09;;;;;;;9.70;3.70;;;;;;;;;;5074853;28;20526;-63
2024/02/05 14:35:36;;;;;;;9.70;3.00;;;;;;;;;;5074831;28;20447;-63
2024/02/05 14:38:03;;;;;;;9.73;4.37;;;;;;;;;;5074236;28;20481;-63
2024/02/05 14:40:30;;;;;;;13.67;4.63;;;;;;;;;;5074718;28;20533;-63